Col d'Ornon - E

Date : 05/06/2010

Place Nom Licence Catégorie Club Temps Points
1 BASSET Marian 11355 H14 6911AR 0:18:26 3824
2 CHABANCE Thomas 18120 H14 4201AR 0:19:50 3554
3 LOPEZ Etienne 19767 H14 4201AR 0:22:56 3074
4 BODY Mathilde 10184 D14 7305AR 0:24:11 2915
5 DROIN Solène 17925 D14 4201AR 0:24:34 2869
6 PERRIN Arnaud 8975 H14 4201AR 0:26:32 2657
7 VIVIER-BOUDRIER Théo 19401 H14 4203AR 0:26:36 2650
8 JOURDAN Cindy 23286 D16 2606AR 0:26:42 2640
9 XIMENEZ Vincent 17708 H14 3801AR 0:26:50 2627
10 DI-BRANGO Sebastien 17707 H14 3801AR 0:26:52 2624
11 SIMON Antoine 13625 H14 2605AR 0:28:14 2497
12 CRESPIN Alexis 23283 H14 2606AR 0:29:34 2384
13 LAFARGE Emeline 17418 D14 7403AR 0:30:58 2276
14 BONORA Marine 11542 D14 6906AR 0:33:42 2092
15 JOURDAN Aurélien 23285 H14 2606AR 0:33:46 2088
16 BONNAVEIRA Fabien 23282 H14 2606AR 0:35:38 1978
17 LE PENNEC Jean 20744 H14 2605AR 0:38:54 1812
18 VALETTE Marion 10430 D14 6913AR 0:39:04 1804
19 CHAILLARD Dana 12045 D14 7305AR 0:40:34 1738
20 BERRARD Anna 19762 D14 2607AR 0:40:36 1736
21 RIVOLLIER Isaline 22451 D14 4201AR 0:46:30 1516
22 DEFIX Julia 19894 D14 4203AR 0:48:01 1468
23 PARDIMENE Quentin 22566 H14 3801AR 0:54:52 1285
24 BERARD Florent 23120 H14 2605AR 1:00:42 1161
25 ROCHE Jonathan 15417 H14 6911AR 1:33:15 756
GENNARO Leslie 20863 D14 3811AR pm 0
MOREAU Noé 17929 H14 2605AR pm 0